Weather at RAF Troodos Helipad

Public forecast

Using degrees Celsius for public forecast. Weather courtesy of forecast.io.

Closest aviation weather report (METAR) to RAF Troodos Helipad

Closest report is RAF Akrotiri, 20.3 nm (37.6 km) SSE.

2024/06/16 20:50 (retrieved 18 minutes ago)

LCRA 162050Z 24005KT CAVOK 25/22 Q1007 NOSIG

Closest aviation forecast (TAF) to RAF Troodos Helipad

Closest forecast is RAF Akrotiri, 20.3 nm (37.6 km) SSE.

2024/06/16 21:37 (retrieved 0 seconds ago)

TAF LCRA 161925Z 1621/1715 27010KT CAVOK PROB30 TEMPO 1621/1706 SCT013 PROB40 1701/1706 05003KT